createdAt,value
2022-12-19T00:00:36.707Z,-0.20
2022-12-19T00:03:04.968Z,-0.20
2022-12-19T00:05:36.880Z,-0.30
2022-12-19T00:08:11.409Z,-0.30
2022-12-19T00:10:55.980Z,-0.30
2022-12-19T00:13:24.596Z,-0.40
2022-12-19T00:15:52.807Z,-0.30
2022-12-19T00:18:20.822Z,-0.30
2022-12-19T00:20:56.496Z,-0.20
2022-12-19T00:23:24.462Z,-0.20
2022-12-19T00:25:53.883Z,-0.20
2022-12-19T00:28:21.810Z,-0.10
2022-12-19T00:30:49.782Z,-0.10
2022-12-19T00:33:19.584Z,0.00
2022-12-19T00:35:47.440Z,0.00
2022-12-19T00:38:15.304Z,-0.10
2022-12-19T00:40:43.200Z,-0.10
2022-12-19T00:43:12.642Z,-0.10
2022-12-19T00:45:40.551Z,-0.10
2022-12-19T00:48:08.578Z,-0.10
2022-12-19T00:50:38.407Z,-0.10
2022-12-19T00:53:06.310Z,-0.10
2022-12-19T00:55:34.272Z,-0.20
2022-12-19T00:58:02.236Z,-0.20
2022-12-19T01:00:31.676Z,-0.20
2022-12-19T01:02:59.827Z,-0.10
2022-12-19T01:05:29.785Z,-0.10
2022-12-19T01:07:58.604Z,-0.10
2022-12-19T01:10:26.515Z,-0.20
2022-12-19T01:12:53.452Z,-0.20
2022-12-19T01:15:22.404Z,-0.20
2022-12-19T01:17:51.955Z,-0.20
2022-12-19T01:20:29.705Z,-0.20
2022-12-19T01:22:59.984Z,-0.20
2022-12-19T01:25:28.438Z,-0.20
2022-12-19T01:27:56.579Z,-0.10
2022-12-19T01:30:24.557Z,-0.10
2022-12-19T01:32:53.933Z,-0.10
2022-12-19T01:35:22.429Z,-0.10
2022-12-19T01:37:51.142Z,-0.20
2022-12-19T01:40:20.005Z,-0.20
2022-12-19T01:42:49.167Z,-0.20
2022-12-19T01:45:34.451Z,-0.20
2022-12-19T01:48:15.852Z,-0.20
2022-12-19T01:51:00.593Z,-0.20
2022-12-19T01:53:34.605Z,-0.20
2022-12-19T01:56:10.129Z,-0.10
2022-12-19T01:58:42.764Z,-0.20
2022-12-19T02:01:10.861Z,-0.20
2022-12-19T02:03:41.607Z,-0.20
2022-12-19T02:06:10.475Z,-0.20
2022-12-19T02:08:39.050Z,-0.20
2022-12-19T02:11:07.285Z,-0.20
2022-12-19T02:13:35.659Z,-0.20
2022-12-19T02:16:14.187Z,-0.20
2022-12-19T02:18:51.857Z,-0.20
2022-12-19T02:21:45.972Z,-0.30
2022-12-19T02:24:45.525Z,-0.20
2022-12-19T02:27:46.554Z,-0.20
2022-12-19T02:30:17.399Z,-0.20
2022-12-19T02:33:01.612Z,-0.30
2022-12-19T02:35:35.013Z,-0.20
2022-12-19T02:38:13.370Z,-0.20
2022-12-19T02:40:45.093Z,-0.20
2022-12-19T02:43:14.954Z,-0.20
2022-12-19T02:45:44.643Z,-0.20
2022-12-19T02:48:19.059Z,-0.20
2022-12-19T02:50:50.191Z,-0.20
2022-12-19T02:53:21.796Z,-0.20
2022-12-19T02:55:59.448Z,-0.20
2022-12-19T02:58:50.873Z,-0.20
2022-12-19T03:01:31.555Z,-0.10
2022-12-19T03:04:11.765Z,-0.10
2022-12-19T03:06:47.929Z,-0.10
2022-12-19T03:09:22.411Z,-0.10
2022-12-19T03:11:58.624Z,-0.10
2022-12-19T03:14:28.025Z,0.00
2022-12-19T03:16:56.164Z,0.10
2022-12-19T03:19:25.845Z,0.20
2022-12-19T03:21:53.934Z,0.10
2022-12-19T03:24:22.009Z,0.10
2022-12-19T03:26:54.571Z,0.10
2022-12-19T03:29:28.359Z,0.00
2022-12-19T03:31:57.678Z,0.00
2022-12-19T03:34:32.494Z,0.10
2022-12-19T03:37:04.877Z,0.00
2022-12-19T03:39:35.164Z,0.10
2022-12-19T03:42:23.488Z,0.00
2022-12-19T03:44:52.041Z,0.00
2022-12-19T03:47:25.198Z,0.00
2022-12-19T03:49:54.675Z,0.00
2022-12-19T03:52:30.991Z,0.10
2022-12-19T03:55:05.759Z,0.10
2022-12-19T03:57:38.956Z,0.20
2022-12-19T04:00:08.970Z,0.20
2022-12-19T04:02:39.249Z,0.20
2022-12-19T04:05:15.179Z,0.20
2022-12-19T04:07:43.591Z,0.20
2022-12-19T04:10:16.649Z,0.30
2022-12-19T04:12:49.766Z,0.30
2022-12-19T04:15:18.340Z,0.10
2022-12-19T04:17:51.246Z,0.20
2022-12-19T04:20:22.805Z,0.10
2022-12-19T04:22:55.338Z,0.00
2022-12-19T04:25:29.741Z,0.00
2022-12-19T04:28:01.327Z,0.00
2022-12-19T04:30:29.703Z,0.10
2022-12-19T04:33:04.624Z,0.10
2022-12-19T04:35:35.274Z,0.20
2022-12-19T04:38:03.617Z,0.10
2022-12-19T04:40:36.550Z,0.10
2022-12-19T04:43:08.335Z,0.20
2022-12-19T04:45:36.519Z,0.20
2022-12-19T04:48:04.880Z,0.20
2022-12-19T04:50:37.477Z,0.20
2022-12-19T04:53:05.720Z,0.20
2022-12-19T04:55:33.667Z,0.20
2022-12-19T04:58:06.127Z,0.10
2022-12-19T05:00:34.017Z,0.00
2022-12-19T05:03:02.432Z,0.20
2022-12-19T05:05:30.601Z,0.20
2022-12-19T05:08:02.964Z,0.20
2022-12-19T05:10:30.898Z,0.20
2022-12-19T05:12:58.787Z,0.20
2022-12-19T05:15:26.766Z,0.20
2022-12-19T05:17:54.841Z,0.30
2022-12-19T05:20:22.878Z,0.40
2022-12-19T05:22:50.846Z,0.40
2022-12-19T05:25:20.224Z,0.40
2022-12-19T05:27:48.325Z,0.30
2022-12-19T05:30:16.802Z,0.40
2022-12-19T05:32:44.873Z,0.30
2022-12-19T05:35:12.818Z,0.30
2022-12-19T05:37:40.874Z,0.40
2022-12-19T05:40:10.083Z,0.30
2022-12-19T05:42:39.422Z,0.30
2022-12-19T05:45:08.744Z,0.30
2022-12-19T05:47:38.061Z,0.30
2022-12-19T05:50:07.081Z,0.30
2022-12-19T05:52:34.939Z,0.50
2022-12-19T05:55:02.894Z,0.40
2022-12-19T05:57:30.908Z,0.40
2022-12-19T06:00:00.276Z,0.40
2022-12-19T06:02:28.396Z,0.30
2022-12-19T06:04:56.274Z,0.30
2022-12-19T06:07:24.099Z,0.40
2022-12-19T06:09:51.991Z,0.30
2022-12-19T06:12:19.964Z,0.40
2022-12-19T06:14:47.833Z,0.30
2022-12-19T06:17:17.106Z,0.40
2022-12-19T06:19:45.887Z,0.40
2022-12-19T06:22:13.978Z,0.40
2022-12-19T06:24:42.025Z,0.50
2022-12-19T06:27:09.883Z,0.60
2022-12-19T06:29:37.741Z,0.60
2022-12-19T06:32:05.813Z,0.70
2022-12-19T06:35:02.770Z,0.70
2022-12-19T06:37:23.028Z,0.70
2022-12-19T06:39:51.712Z,0.60
2022-12-19T06:42:24.556Z,0.60
2022-12-19T06:44:54.086Z,0.70
2022-12-19T06:47:23.403Z,0.70
2022-12-19T06:49:52.816Z,0.60
2022-12-19T06:52:20.722Z,0.60
2022-12-19T06:54:48.771Z,0.60
2022-12-19T06:57:16.703Z,0.70
2022-12-19T06:59:44.650Z,0.70
2022-12-19T07:02:27.248Z,0.60
2022-12-19T07:04:58.833Z,0.70
2022-12-19T07:07:26.700Z,0.80
2022-12-19T07:09:54.816Z,0.80
2022-12-19T07:12:22.890Z,0.80
2022-12-19T07:14:53.606Z,0.80
2022-12-19T07:17:23.350Z,0.90
2022-12-19T07:19:51.566Z,0.90
2022-12-19T07:22:21.225Z,0.90
2022-12-19T07:24:49.442Z,0.90
2022-12-19T07:27:17.594Z,0.90
2022-12-19T07:29:45.518Z,0.80
2022-12-19T07:32:13.517Z,0.90
2022-12-19T07:34:41.494Z,0.90
2022-12-19T07:37:09.445Z,0.90
2022-12-19T07:39:38.812Z,1.00
2022-12-19T07:42:06.785Z,0.90
2022-12-19T07:44:34.802Z,0.90
2022-12-19T07:47:02.715Z,0.90
2022-12-19T07:49:30.727Z,0.90
2022-12-19T07:51:58.699Z,1.00
2022-12-19T07:54:26.650Z,1.00
2022-12-19T07:56:56.565Z,1.00
2022-12-19T07:59:29.596Z,1.00
2022-12-19T08:01:58.541Z,1.00
2022-12-19T08:04:27.382Z,1.00
2022-12-19T08:06:55.347Z,1.00
2022-12-19T08:09:23.224Z,1.00
2022-12-19T08:11:51.105Z,1.00
2022-12-19T08:14:20.527Z,1.00
2022-12-19T08:17:19.416Z,1.10
2022-12-19T08:19:36.532Z,1.10
2022-12-19T08:22:04.640Z,1.10
2022-12-19T08:24:32.618Z,1.10
2022-12-19T08:27:00.745Z,1.20
2022-12-19T08:29:30.249Z,1.20
2022-12-19T08:31:58.218Z,1.30
2022-12-19T08:34:26.070Z,1.30
2022-12-19T08:36:54.069Z,1.40
2022-12-19T08:39:22.044Z,1.40
2022-12-19T08:41:50.043Z,1.40
2022-12-19T08:44:18.013Z,1.40
2022-12-19T08:46:50.305Z,1.50
2022-12-19T08:49:18.780Z,1.40
2022-12-19T08:51:47.039Z,1.50
2022-12-19T08:54:15.283Z,1.40
2022-12-19T08:56:45.966Z,1.50
2022-12-19T08:59:15.033Z,1.50
2022-12-19T09:01:55.081Z,1.50
2022-12-19T09:05:17.837Z,1.50
2022-12-19T09:07:15.278Z,1.50
2022-12-19T09:09:44.199Z,1.60
2022-12-19T09:12:13.747Z,1.50
2022-12-19T09:14:41.655Z,1.60
2022-12-19T09:17:11.122Z,1.60
2022-12-19T09:19:39.274Z,1.60
2022-12-19T09:22:12.385Z,1.60
2022-12-19T09:24:40.400Z,1.60
2022-12-19T09:27:08.379Z,1.70
2022-12-19T09:29:36.263Z,1.70
2022-12-19T09:32:04.366Z,1.80
2022-12-19T09:34:37.607Z,1.80
2022-12-19T09:37:07.031Z,1.90
2022-12-19T09:39:35.981Z,2.00
2022-12-19T09:42:41.232Z,2.00
2022-12-19T09:45:33.192Z,2.00
2022-12-19T09:48:02.198Z,2.00
2022-12-19T09:50:44.799Z,2.10
2022-12-19T09:53:23.003Z,2.10
2022-12-19T09:55:55.002Z,2.20
2022-12-19T09:58:32.572Z,2.20
2022-12-19T10:01:05.800Z,2.30
2022-12-19T10:03:40.263Z,2.20
2022-12-19T10:07:12.834Z,2.30
2022-12-19T10:11:13.950Z,2.40
2022-12-19T10:12:45.448Z,2.40
2022-12-19T10:15:07.441Z,2.50
2022-12-19T10:17:52.609Z,2.70
2022-12-19T10:20:25.470Z,2.70
2022-12-19T10:23:08.737Z,2.80
2022-12-19T10:25:59.614Z,2.90
2022-12-19T10:28:46.352Z,3.00
2022-12-19T10:31:21.898Z,3.00
2022-12-19T10:33:56.705Z,3.10
2022-12-19T10:36:48.615Z,3.20
2022-12-19T10:39:24.967Z,3.20
2022-12-19T10:41:58.173Z,3.30
2022-12-19T10:44:30.843Z,3.40
2022-12-19T10:46:58.776Z,3.50
2022-12-19T10:49:28.426Z,3.50
2022-12-19T10:52:00.595Z,3.50
2022-12-19T10:54:41.557Z,3.40
2022-12-19T10:57:25.284Z,3.40
2022-12-19T10:59:58.655Z,3.50
2022-12-19T11:02:41.410Z,3.70
2022-12-19T11:05:24.395Z,3.70
2022-12-19T11:08:04.132Z,3.90
2022-12-19T11:11:55.919Z,3.90
2022-12-19T11:19:13.258Z,3.90
2022-12-19T11:22:17.160Z,3.80
2022-12-19T11:29:15.462Z,3.70
2022-12-19T11:29:26.685Z,3.80
2022-12-19T11:29:33.806Z,3.80
2022-12-19T11:30:45.893Z,3.70
2022-12-19T11:34:05.245Z,3.70
2022-12-19T11:36:39.997Z,3.70
2022-12-19T11:39:14.470Z,3.70
2022-12-19T11:41:47.504Z,3.60
2022-12-19T11:44:27.289Z,3.60
2022-12-19T11:47:04.674Z,3.50
2022-12-19T11:49:37.145Z,3.50
2022-12-19T11:52:29.804Z,3.50
2022-12-19T11:55:07.323Z,3.50
2022-12-19T11:57:36.146Z,3.50
2022-12-19T12:00:06.729Z,3.60
2022-12-19T12:03:03.398Z,3.50
2022-12-19T12:05:44.641Z,3.40
2022-12-19T12:09:39.384Z,3.30
2022-12-19T12:17:46.233Z,3.30
2022-12-19T12:22:21.846Z,3.40
2022-12-19T12:31:15.190Z,3.40
2022-12-19T12:31:23.394Z,3.30
2022-12-19T12:31:26.006Z,3.30
2022-12-19T12:31:52.923Z,3.30
2022-12-19T12:32:05.785Z,3.30
2022-12-19T12:35:29.217Z,3.30
2022-12-19T12:38:52.500Z,3.40
2022-12-19T12:41:42.745Z,3.60
2022-12-19T12:44:13.307Z,3.60
2022-12-19T12:46:45.767Z,3.60
2022-12-19T12:49:36.686Z,3.60
2022-12-19T12:52:07.758Z,3.50
2022-12-19T12:54:39.091Z,3.60
2022-12-19T12:57:07.268Z,3.50
2022-12-19T12:59:35.343Z,3.50
2022-12-19T13:02:15.531Z,3.50
2022-12-19T13:04:57.458Z,3.40
2022-12-19T13:07:43.161Z,3.40
2022-12-19T13:10:25.368Z,3.40
2022-12-19T13:13:01.050Z,3.30
2022-12-19T13:15:43.595Z,3.30
2022-12-19T13:18:37.691Z,3.30
2022-12-19T13:21:10.528Z,3.30
2022-12-19T13:23:47.163Z,3.40
2022-12-19T13:26:51.074Z,3.40
2022-12-19T13:29:54.912Z,3.30
2022-12-19T13:32:24.717Z,3.20
2022-12-19T13:35:06.278Z,3.20
2022-12-19T13:40:00.221Z,3.10
2022-12-19T13:40:51.439Z,3.10
2022-12-19T13:43:39.825Z,3.10
2022-12-19T13:46:23.550Z,3.10
2022-12-19T13:48:53.763Z,3.10
2022-12-19T13:51:21.679Z,3.00
2022-12-19T13:53:59.616Z,3.00
2022-12-19T13:56:31.863Z,2.90
2022-12-19T13:59:02.341Z,2.90
2022-12-19T14:01:33.096Z,2.90
2022-12-19T14:04:08.004Z,2.90
2022-12-19T14:06:41.995Z,3.00
2022-12-19T14:11:27.154Z,3.00
2022-12-19T14:13:50.759Z,3.00
2022-12-19T14:15:32.655Z,3.10
2022-12-19T14:18:41.842Z,3.10
2022-12-19T14:22:11.420Z,3.10
2022-12-19T14:23:44.047Z,3.00
2022-12-19T14:28:16.786Z,3.00
2022-12-19T14:29:15.577Z,3.00
2022-12-19T14:33:40.242Z,3.00
2022-12-19T14:35:22.387Z,3.00
2022-12-19T14:37:54.629Z,3.00
2022-12-19T14:40:26.867Z,2.90
2022-12-19T14:44:00.311Z,2.80
2022-12-19T14:54:04.230Z,2.80
2022-12-19T14:54:08.628Z,2.70
2022-12-19T14:54:42.092Z,2.50
2022-12-19T14:58:51.250Z,2.40
2022-12-19T15:01:08.879Z,2.40
2022-12-19T15:03:22.704Z,2.30
2022-12-19T15:05:51.620Z,2.30
2022-12-19T15:09:50.645Z,2.30
2022-12-19T15:11:54.031Z,2.30
2022-12-19T15:14:53.787Z,2.30
2022-12-19T15:17:28.389Z,2.20
2022-12-19T15:19:56.444Z,2.20
2022-12-19T15:22:24.476Z,2.10
2022-12-19T15:24:52.454Z,2.10
2022-12-19T15:27:21.747Z,2.10
2022-12-19T15:29:49.746Z,2.00
2022-12-19T15:32:18.016Z,2.10
2022-12-19T15:34:51.337Z,2.00
2022-12-19T15:37:19.809Z,2.00
2022-12-19T15:39:47.801Z,2.00
2022-12-19T15:42:20.586Z,2.00
2022-12-19T15:44:49.904Z,1.90
2022-12-19T15:47:20.555Z,2.00
2022-12-19T15:49:49.841Z,2.00
2022-12-19T15:52:19.196Z,1.90
2022-12-19T15:54:49.134Z,1.90
2022-12-19T15:57:25.664Z,1.90
2022-12-19T15:59:54.156Z,1.80
2022-12-19T16:02:27.918Z,1.80
2022-12-19T16:05:07.492Z,1.90
2022-12-19T16:07:35.551Z,1.90
2022-12-19T16:10:03.642Z,1.80
2022-12-19T16:12:36.711Z,1.80
2022-12-19T16:15:05.696Z,1.90
2022-12-19T16:17:34.306Z,1.90
2022-12-19T16:20:02.285Z,1.90
2022-12-19T16:22:31.681Z,1.90
2022-12-19T16:24:59.730Z,2.00
2022-12-19T16:27:30.002Z,2.00
2022-12-19T16:30:03.691Z,2.00
2022-12-19T16:32:31.651Z,2.00
2022-12-19T16:34:59.583Z,2.00
2022-12-19T16:37:32.164Z,2.00
2022-12-19T16:40:02.041Z,1.90
2022-12-19T16:42:31.023Z,1.90
2022-12-19T16:44:59.031Z,1.90
2022-12-19T16:47:27.028Z,2.00
2022-12-19T16:49:55.172Z,2.00
2022-12-19T16:52:23.282Z,2.00
2022-12-19T16:54:51.310Z,2.00
2022-12-19T16:57:23.283Z,2.00
2022-12-19T16:59:52.078Z,2.00
2022-12-19T17:02:40.459Z,1.90
2022-12-19T17:05:14.935Z,1.90
2022-12-19T17:07:42.947Z,2.00
2022-12-19T17:10:11.771Z,2.10
2022-12-19T17:12:41.713Z,2.00
2022-12-19T17:15:19.617Z,2.00
2022-12-19T17:17:47.710Z,2.00
2022-12-19T17:20:18.516Z,1.90
2022-12-19T17:22:46.559Z,1.90
2022-12-19T17:25:20.778Z,2.00
2022-12-19T17:27:50.951Z,2.00
2022-12-19T17:30:19.602Z,2.00
2022-12-19T17:32:50.108Z,2.00
2022-12-19T17:35:24.056Z,2.10
2022-12-19T17:37:56.953Z,2.40
2022-12-19T17:40:27.097Z,2.50
2022-12-19T17:42:56.588Z,2.70
2022-12-19T17:45:25.011Z,2.80
2022-12-19T17:48:00.399Z,3.00
2022-12-19T17:50:40.116Z,3.10
2022-12-19T17:53:13.553Z,3.20
2022-12-19T17:55:41.503Z,3.30
2022-12-19T17:58:11.199Z,3.30
2022-12-19T18:00:40.663Z,3.50
2022-12-19T18:03:18.886Z,3.50
2022-12-19T18:05:46.931Z,3.60
2022-12-19T18:08:25.991Z,3.70
2022-12-19T18:10:56.426Z,3.70
2022-12-19T18:13:26.791Z,3.70
2022-12-19T18:15:57.874Z,3.70
2022-12-19T18:18:29.145Z,3.70
2022-12-19T18:20:58.723Z,3.70
2022-12-19T18:23:26.995Z,3.80
2022-12-19T18:26:01.218Z,3.80
2022-12-19T18:28:31.848Z,3.80
2022-12-19T18:31:02.229Z,3.80
2022-12-19T18:33:36.025Z,3.80
2022-12-19T18:36:04.187Z,3.80
2022-12-19T18:38:32.661Z,3.80
2022-12-19T18:41:01.242Z,3.80
2022-12-19T18:43:31.040Z,3.70
2022-12-19T18:46:00.473Z,3.70
2022-12-19T18:48:30.047Z,3.70
2022-12-19T18:50:59.378Z,3.60
2022-12-19T18:53:35.222Z,3.60
2022-12-19T18:56:05.323Z,3.60
2022-12-19T18:58:34.155Z,3.60
2022-12-19T19:01:05.371Z,3.50
2022-12-19T19:03:35.370Z,3.50
2022-12-19T19:06:05.403Z,3.60
2022-12-19T19:08:34.951Z,3.60
2022-12-19T19:11:02.834Z,3.60
2022-12-19T19:13:31.490Z,3.70
2022-12-19T19:16:01.470Z,3.70
2022-12-19T19:18:35.123Z,3.60
2022-12-19T19:21:03.810Z,3.60
2022-12-19T19:23:37.419Z,3.50
2022-12-19T19:26:06.826Z,3.50
2022-12-19T19:28:37.132Z,3.50
2022-12-19T19:31:09.902Z,3.50
2022-12-19T19:33:43.639Z,3.50
2022-12-19T19:36:16.775Z,3.40
2022-12-19T19:38:47.688Z,3.40
2022-12-19T19:41:15.833Z,3.30
2022-12-19T19:43:43.828Z,3.30
2022-12-19T19:46:13.047Z,3.40
2022-12-19T19:48:42.775Z,3.40
2022-12-19T19:51:12.212Z,3.30
2022-12-19T19:53:40.414Z,3.30
2022-12-19T19:56:08.866Z,3.30
2022-12-19T19:58:37.035Z,3.20
2022-12-19T20:01:08.933Z,3.30
2022-12-19T20:03:37.275Z,3.30
2022-12-19T20:06:07.413Z,3.30
2022-12-19T20:08:39.705Z,3.30
2022-12-19T20:11:09.022Z,3.30
2022-12-19T20:13:37.727Z,3.20
2022-12-19T20:16:07.574Z,3.30
2022-12-19T20:18:36.173Z,3.30
2022-12-19T20:21:09.197Z,3.30
2022-12-19T20:23:43.495Z,3.30
2022-12-19T20:26:13.268Z,3.30
2022-12-19T20:28:48.444Z,3.30
2022-12-19T20:31:19.259Z,3.20
2022-12-19T20:33:48.280Z,3.20
2022-12-19T20:36:16.838Z,3.20
2022-12-19T20:38:46.304Z,3.10
2022-12-19T20:41:14.518Z,3.10
2022-12-19T20:43:42.516Z,3.10
2022-12-19T20:46:13.300Z,3.10
2022-12-19T20:48:42.328Z,3.10
2022-12-19T20:51:10.946Z,3.10
2022-12-19T20:53:39.888Z,3.20
2022-12-19T20:56:11.572Z,3.20
2022-12-19T20:58:39.774Z,3.20
2022-12-19T21:01:09.544Z,3.20
2022-12-19T21:03:38.584Z,3.10
2022-12-19T21:06:09.192Z,3.10
2022-12-19T21:08:37.605Z,3.20
2022-12-19T21:11:07.062Z,3.20
2022-12-19T21:13:37.917Z,3.20
2022-12-19T21:16:08.647Z,3.20
2022-12-19T21:18:37.842Z,3.10
2022-12-19T21:21:06.581Z,3.10
2022-12-19T21:23:35.556Z,3.00
2022-12-19T21:26:05.849Z,3.00
2022-12-19T21:28:35.826Z,3.00
2022-12-19T21:31:06.008Z,3.10
2022-12-19T21:33:34.495Z,3.00
2022-12-19T21:36:07.873Z,2.90
2022-12-19T21:38:36.153Z,2.90
2022-12-19T21:41:05.121Z,2.90
2022-12-19T21:43:33.530Z,2.90
2022-12-19T21:46:11.406Z,2.90
2022-12-19T21:48:40.885Z,3.00
2022-12-19T21:51:09.254Z,2.90
2022-12-19T21:53:38.677Z,2.90
2022-12-19T21:56:08.577Z,3.00
2022-12-19T21:58:36.614Z,3.00
2022-12-19T22:01:08.263Z,3.00
2022-12-19T22:03:38.418Z,3.00
2022-12-19T22:06:09.123Z,3.00
2022-12-19T22:08:37.340Z,3.00
2022-12-19T22:11:05.354Z,3.00
2022-12-19T22:13:33.347Z,3.00
2022-12-19T22:16:02.418Z,3.00
2022-12-19T22:18:30.485Z,2.90
2022-12-19T22:21:00.221Z,2.90
2022-12-19T22:23:28.368Z,2.80
2022-12-19T22:26:04.207Z,2.80
2022-12-19T22:28:32.928Z,2.80
2022-12-19T22:31:01.317Z,2.80
2022-12-19T22:33:29.453Z,2.80
2022-12-19T22:35:58.983Z,2.80
2022-12-19T22:38:27.289Z,2.80
2022-12-19T22:40:55.277Z,2.80
2022-12-19T22:43:23.820Z,2.80
2022-12-19T22:45:51.904Z,2.70
2022-12-19T22:48:19.802Z,2.70
2022-12-19T22:50:47.918Z,2.70
2022-12-19T22:53:17.420Z,2.80
2022-12-19T22:55:45.287Z,2.80
2022-12-19T22:58:13.311Z,2.90
2022-12-19T23:00:41.238Z,2.90
2022-12-19T23:03:09.279Z,2.80
2022-12-19T23:05:37.787Z,2.80
2022-12-19T23:08:06.198Z,2.70
2022-12-19T23:10:35.541Z,2.70
2022-12-19T23:13:03.467Z,2.70
2022-12-19T23:15:31.418Z,2.80
2022-12-19T23:17:59.447Z,2.80
2022-12-19T23:20:27.445Z,2.80
2022-12-19T23:22:55.419Z,2.80
2022-12-19T23:25:23.541Z,2.70
2022-12-19T23:28:06.381Z,2.80
2022-12-19T23:30:34.515Z,2.70
2022-12-19T23:33:02.852Z,2.70
2022-12-19T23:35:33.532Z,2.70
2022-12-19T23:38:01.447Z,2.70
2022-12-19T23:40:29.458Z,2.70
2022-12-19T23:42:57.434Z,2.70
2022-12-19T23:45:27.015Z,2.60
2022-12-19T23:47:54.968Z,2.60
2022-12-19T23:50:23.003Z,2.70
2022-12-19T23:52:50.908Z,3.00
2022-12-19T23:55:18.947Z,3.20
2022-12-19T23:57:46.852Z,3.40
